Weather at Clermont-Ferrand Auvergne Airport

Public forecast

Using degrees Celsius for public forecast. Weather courtesy of forecast.io.

Current aviation weather report (METAR) for Clermont-Ferrand Auvergne Airport

Report is more than 6 hours old.

2022/11/14 15:30 (retrieved 2 years ago)

LFLC 141530Z AUTO 18013KT 9999 FEW058/// BKN070/// OVC086/// ///CB 14/11 Q1014 TEMPO RA

Aviation forecast (TAF) for Clermont-Ferrand Auvergne Airport

Forecast is more than 12 hours old.

2023/02/22 18:42 (retrieved 1 year ago)

TAF LFLC 221700Z 2218/2318 18006KT 9999 OVC040 TEMPO 2304/2310 BKN012 PROB30 TEMPO 2304/2309 3000 BR BKN008 TEMPO 2311/2316 36005KT